createdAt,value
2022-09-09T00:02:05.957Z,59.25
2022-09-09T00:04:34.707Z,59.26
2022-09-09T00:07:10.788Z,59.72
2022-09-09T00:10:00.562Z,59.70
2022-09-09T00:12:49.460Z,59.49
2022-09-09T00:15:21.698Z,59.71
2022-09-09T00:18:00.848Z,59.58
2022-09-09T00:20:36.702Z,60.06
2022-09-09T00:23:26.228Z,60.35
2022-09-09T00:26:22.175Z,59.99
2022-09-09T00:29:05.980Z,60.47
2022-09-09T00:31:33.293Z,60.23
2022-09-09T00:34:10.415Z,60.66
2022-09-09T00:36:38.324Z,60.44
2022-09-09T00:39:05.701Z,60.68
2022-09-09T00:41:41.418Z,60.52
2022-09-09T00:44:50.235Z,60.68
2022-09-09T00:47:44.713Z,60.70
2022-09-09T00:50:36.163Z,60.98
2022-09-09T00:53:20.695Z,60.73
2022-09-09T00:56:16.177Z,60.84
2022-09-09T00:58:48.869Z,60.85
2022-09-09T01:01:15.650Z,60.96
2022-09-09T01:03:54.859Z,60.99
2022-09-09T01:06:31.786Z,60.78
2022-09-09T01:09:25.084Z,60.92
2022-09-09T01:12:04.108Z,60.94
2022-09-09T01:14:35.468Z,60.89
2022-09-09T01:17:16.484Z,60.95
2022-09-09T01:20:03.148Z,61.04
2022-09-09T01:22:49.172Z,60.76
2022-09-09T01:25:40.538Z,60.80
2022-09-09T01:28:21.615Z,60.98
2022-09-09T01:30:48.630Z,60.58
2022-09-09T01:33:19.783Z,60.68
2022-09-09T01:35:55.840Z,60.79
2022-09-09T01:38:26.110Z,60.86
2022-09-09T01:40:54.663Z,60.91
2022-09-09T01:43:27.991Z,60.67
2022-09-09T01:45:57.575Z,60.70
2022-09-09T01:48:25.804Z,60.57
2022-09-09T01:51:01.812Z,60.53
2022-09-09T01:53:28.553Z,60.69
2022-09-09T01:56:12.141Z,60.61
2022-09-09T01:58:53.322Z,60.72
2022-09-09T02:01:47.548Z,60.36
2022-09-09T02:04:42.285Z,60.32
2022-09-09T02:07:35.523Z,60.28
2022-09-09T02:10:11.971Z,60.45
2022-09-09T02:12:48.332Z,60.36
2022-09-09T02:15:23.434Z,60.59
2022-09-09T02:17:52.880Z,60.39
2022-09-09T02:20:20.846Z,60.47
2022-09-09T02:22:57.152Z,60.63
2022-09-09T02:25:29.179Z,60.61
2022-09-09T02:27:59.894Z,60.58
2022-09-09T02:30:30.225Z,60.59
2022-09-09T02:33:01.449Z,60.57
2022-09-09T02:35:46.031Z,60.58
2022-09-09T02:38:16.283Z,60.76
2022-09-09T02:40:54.212Z,60.65
2022-09-09T02:43:20.930Z,60.63
2022-09-09T02:45:57.971Z,60.69
2022-09-09T02:48:38.028Z,60.83
2022-09-09T02:51:12.687Z,60.95
2022-09-09T02:54:05.298Z,60.85
2022-09-09T02:56:38.354Z,60.76
2022-09-09T02:59:05.763Z,60.84
2022-09-09T03:01:34.455Z,60.59
2022-09-09T03:04:01.238Z,60.74
2022-09-09T03:06:27.958Z,60.95
2022-09-09T03:09:02.325Z,60.73
2022-09-09T03:11:30.326Z,60.91
2022-09-09T03:13:58.269Z,60.87
2022-09-09T03:16:26.463Z,60.75
2022-09-09T03:18:54.724Z,60.88
2022-09-09T03:21:21.472Z,60.95
2022-09-09T03:23:49.111Z,60.90
2022-09-09T03:26:16.009Z,60.80
2022-09-09T03:28:45.652Z,60.80
2022-09-09T03:31:14.743Z,60.90
2022-09-09T03:33:43.106Z,60.73
2022-09-09T03:36:12.721Z,60.72
2022-09-09T03:38:39.792Z,60.77
2022-09-09T03:41:07.215Z,60.83
2022-09-09T03:43:34.567Z,60.56
2022-09-09T03:46:01.661Z,60.61
2022-09-09T03:48:30.481Z,60.68
2022-09-09T03:50:58.646Z,60.65
2022-09-09T03:53:25.850Z,60.58
2022-09-09T03:55:55.663Z,60.46
2022-09-09T03:58:24.398Z,60.62
2022-09-09T04:01:00.775Z,60.95
2022-09-09T04:03:28.802Z,60.86
2022-09-09T04:05:56.473Z,60.49
2022-09-09T04:08:25.134Z,60.83
2022-09-09T04:10:52.392Z,60.86
2022-09-09T04:13:19.847Z,61.34
2022-09-09T04:15:56.487Z,61.84
2022-09-09T04:18:24.042Z,61.70
2022-09-09T04:20:52.439Z,61.73
2022-09-09T04:23:21.928Z,61.69
2022-09-09T04:25:51.359Z,61.96
2022-09-09T04:28:20.076Z,62.22
2022-09-09T04:30:46.821Z,62.54
2022-09-09T04:33:14.555Z,62.18
2022-09-09T04:35:46.585Z,62.12
2022-09-09T04:38:13.550Z,62.14
2022-09-09T04:40:43.737Z,62.31
2022-09-09T04:43:14.328Z,62.09
2022-09-09T04:45:43.341Z,62.26
2022-09-09T04:48:10.620Z,62.21
2022-09-09T04:50:37.535Z,62.02
2022-09-09T04:53:05.565Z,62.18
2022-09-09T04:55:33.424Z,62.10
2022-09-09T04:58:05.256Z,62.36
2022-09-09T05:00:33.155Z,62.23
2022-09-09T05:03:03.946Z,62.19
2022-09-09T05:05:30.623Z,62.26
2022-09-09T05:08:03.143Z,62.34
2022-09-09T05:10:29.875Z,62.55
2022-09-09T05:12:56.474Z,62.43
2022-09-09T05:15:26.455Z,62.48
2022-09-09T05:17:53.048Z,62.33
2022-09-09T05:20:20.268Z,62.51
2022-09-09T05:22:46.987Z,62.40
2022-09-09T05:25:13.481Z,62.34
2022-09-09T05:27:39.960Z,62.37
2022-09-09T05:30:07.240Z,62.37
2022-09-09T05:32:34.930Z,62.56
2022-09-09T05:35:01.699Z,62.62
2022-09-09T05:37:28.648Z,62.56
2022-09-09T05:39:55.744Z,62.82
2022-09-09T05:42:22.446Z,62.98
2022-09-09T05:44:48.983Z,62.93
2022-09-09T05:47:15.581Z,62.65
2022-09-09T05:49:43.172Z,62.75
2022-09-09T05:52:10.378Z,62.48
2022-09-09T05:54:36.879Z,62.56
2022-09-09T05:57:03.575Z,62.11
2022-09-09T05:59:30.217Z,62.26
2022-09-09T06:01:57.799Z,62.03
2022-09-09T06:04:30.029Z,62.03
2022-09-09T06:06:57.037Z,61.99
2022-09-09T06:09:23.738Z,62.11
2022-09-09T06:11:50.280Z,61.99
2022-09-09T06:14:16.800Z,62.41
2022-09-09T06:16:46.711Z,62.36
2022-09-09T06:19:19.723Z,62.47
2022-09-09T06:21:46.211Z,62.10
2022-09-09T06:24:13.492Z,62.17
2022-09-09T06:26:40.666Z,61.85
2022-09-09T06:29:08.495Z,61.70
2022-09-09T06:31:36.938Z,61.65
2022-09-09T06:34:13.087Z,61.44
2022-09-09T06:36:45.007Z,61.70
2022-09-09T06:39:14.619Z,61.41
2022-09-09T06:41:42.433Z,61.33
2022-09-09T06:44:18.939Z,61.66
2022-09-09T06:46:45.757Z,61.74
2022-09-09T06:49:12.275Z,61.64
2022-09-09T06:51:39.318Z,61.97
2022-09-09T06:54:06.468Z,61.91
2022-09-09T06:56:36.725Z,61.99
2022-09-09T06:59:08.759Z,61.93
2022-09-09T07:01:37.292Z,61.65
2022-09-09T07:04:06.700Z,62.08
2022-09-09T07:06:37.220Z,61.88
2022-09-09T07:09:09.798Z,61.50
2022-09-09T07:11:46.774Z,61.30
2022-09-09T07:14:14.880Z,61.74
2022-09-09T07:16:46.066Z,61.53
2022-09-09T07:19:14.829Z,61.62
2022-09-09T07:21:42.900Z,61.68
2022-09-09T07:24:11.776Z,61.73
2022-09-09T07:26:41.280Z,61.63
2022-09-09T07:29:09.434Z,61.76
2022-09-09T07:31:38.645Z,61.16
2022-09-09T07:34:09.124Z,61.33
2022-09-09T07:36:38.294Z,60.73
2022-09-09T07:39:09.976Z,60.61
2022-09-09T07:41:39.483Z,60.64
2022-09-09T07:44:09.355Z,60.67
2022-09-09T07:46:37.289Z,60.53
2022-09-09T07:49:04.121Z,60.62
2022-09-09T07:51:36.837Z,60.37
2022-09-09T07:54:09.869Z,59.99
2022-09-09T07:56:40.288Z,59.30
2022-09-09T07:59:08.713Z,59.23
2022-09-09T08:01:41.641Z,59.40
2022-09-09T08:04:15.257Z,59.66
2022-09-09T08:06:48.448Z,59.90
2022-09-09T08:09:17.087Z,59.66
2022-09-09T08:11:44.345Z,59.74
2022-09-09T08:14:12.956Z,60.13
2022-09-09T08:16:48.537Z,61.05
2022-09-09T08:19:18.317Z,61.18
2022-09-09T08:21:46.731Z,61.42
2022-09-09T08:24:14.182Z,61.51
2022-09-09T08:26:43.203Z,62.00
2022-09-09T08:29:13.813Z,62.25
2022-09-09T08:31:45.245Z,62.52
2022-09-09T08:34:12.299Z,62.72
2022-09-09T08:36:41.985Z,62.52
2022-09-09T08:39:10.174Z,62.81
2022-09-09T08:42:04.781Z,62.57
2022-09-09T08:44:35.254Z,62.56
2022-09-09T08:47:33.894Z,62.69
2022-09-09T08:50:33.911Z,62.84
2022-09-09T08:53:16.735Z,62.56
2022-09-09T08:55:51.502Z,62.11
2022-09-09T08:58:26.938Z,62.19
2022-09-09T09:01:10.188Z,61.43
2022-09-09T09:04:05.324Z,62.00
2022-09-09T09:06:32.760Z,62.06
2022-09-09T09:09:14.663Z,61.74
2022-09-09T09:11:46.505Z,61.79
2022-09-09T09:14:21.576Z,61.78
2022-09-09T09:17:01.762Z,61.60
2022-09-09T09:19:31.216Z,61.98
2022-09-09T09:22:20.224Z,61.38
2022-09-09T09:25:13.319Z,62.16
2022-09-09T09:28:11.700Z,62.06
2022-09-09T09:31:08.066Z,62.46
2022-09-09T09:33:55.404Z,62.70
2022-09-09T09:36:43.713Z,62.31
2022-09-09T09:42:23.856Z,62.42
2022-09-09T09:44:53.322Z,62.30
2022-09-09T09:47:23.589Z,62.35
2022-09-09T09:50:20.924Z,61.76
2022-09-09T09:52:58.597Z,62.06
2022-09-09T09:55:27.264Z,62.37
2022-09-09T09:57:54.307Z,62.41
2022-09-09T10:00:24.272Z,62.53
2022-09-09T10:03:02.378Z,62.52
2022-09-09T10:05:36.922Z,63.09
2022-09-09T10:08:09.464Z,63.36
2022-09-09T10:11:05.930Z,63.20
2022-09-09T10:13:40.928Z,63.54
2022-09-09T10:16:24.276Z,63.04
2022-09-09T10:18:53.590Z,63.80
2022-09-09T10:21:45.047Z,62.43
2022-09-09T10:24:49.303Z,62.14
2022-09-09T10:27:31.120Z,61.91
2022-09-09T10:30:20.183Z,61.33
2022-09-09T10:32:52.999Z,61.42
2022-09-09T10:35:28.318Z,60.92
2022-09-09T10:38:02.902Z,60.36
2022-09-09T10:40:35.363Z,60.29
2022-09-09T10:43:05.542Z,60.48
2022-09-09T10:45:37.900Z,60.68
2022-09-09T10:48:28.398Z,59.92
2022-09-09T10:51:04.350Z,60.25
2022-09-09T10:54:20.655Z,59.41
2022-09-09T10:56:56.507Z,59.18
2022-09-09T10:59:29.903Z,59.16
2022-09-09T11:02:13.942Z,59.06
2022-09-09T11:04:45.706Z,59.52
2022-09-09T11:07:21.965Z,59.87
2022-09-09T11:09:55.776Z,60.08
2022-09-09T11:12:24.343Z,60.41
2022-09-09T11:15:08.058Z,60.08
2022-09-09T11:17:41.989Z,59.53
2022-09-09T11:20:13.129Z,59.21
2022-09-09T11:22:47.733Z,58.97
2022-09-09T11:25:23.302Z,59.17
2022-09-09T11:28:21.391Z,58.31
2022-09-09T11:30:56.603Z,58.70
2022-09-09T11:33:52.362Z,58.35
2022-09-09T11:36:40.922Z,58.57
2022-09-09T11:39:45.123Z,58.19
2022-09-09T11:42:14.748Z,58.00
2022-09-09T11:44:42.913Z,58.64
2022-09-09T11:47:23.581Z,55.38
2022-09-09T11:49:50.080Z,58.00
2022-09-09T11:52:42.939Z,56.46
2022-09-09T11:55:12.308Z,56.85
2022-09-09T11:57:39.905Z,57.38
2022-09-09T12:00:07.574Z,57.60
2022-09-09T12:02:49.790Z,55.48
2022-09-09T12:05:16.748Z,57.03
2022-09-09T12:07:57.906Z,54.50
2022-09-09T12:10:31.701Z,53.83
2022-09-09T12:13:19.671Z,54.01
2022-09-09T12:15:57.599Z,53.94
2022-09-09T12:18:36.735Z,52.23
2022-09-09T12:21:18.270Z,51.43
2022-09-09T12:23:53.278Z,52.16
2022-09-09T12:26:51.765Z,52.83
2022-09-09T12:29:42.950Z,51.67
2022-09-09T12:32:16.250Z,51.30
2022-09-09T12:34:48.219Z,51.70
2022-09-09T12:37:43.353Z,52.03
2022-09-09T12:40:23.987Z,52.15
2022-09-09T12:42:50.641Z,52.43
2022-09-09T12:45:20.343Z,52.08
2022-09-09T12:48:09.107Z,49.75
2022-09-09T12:50:44.598Z,49.94
2022-09-09T12:53:23.145Z,50.25
2022-09-09T12:55:57.224Z,51.17
2022-09-09T12:58:24.488Z,51.18
2022-09-09T13:00:55.321Z,50.04
2022-09-09T13:03:21.893Z,51.60
2022-09-09T13:05:49.444Z,51.47
2022-09-09T13:08:17.930Z,51.65
2022-09-09T13:10:54.510Z,51.05
2022-09-09T13:13:28.272Z,51.32
2022-09-09T13:15:57.810Z,50.55
2022-09-09T13:18:28.546Z,51.05
2022-09-09T13:20:55.437Z,51.26
2022-09-09T13:23:22.811Z,51.59
2022-09-09T13:26:04.418Z,49.25
2022-09-09T13:28:33.912Z,50.93
2022-09-09T13:31:06.205Z,50.08
2022-09-09T13:33:37.871Z,49.31
2022-09-09T13:36:13.184Z,49.63
2022-09-09T13:38:54.058Z,49.79
2022-09-09T13:41:37.448Z,49.71
2022-09-09T13:44:05.453Z,48.51
2022-09-09T13:46:43.086Z,48.27
2022-09-09T13:49:09.525Z,49.40
2022-09-09T13:51:44.944Z,48.62
2022-09-09T13:54:13.436Z,49.72
2022-09-09T13:56:41.244Z,49.73
2022-09-09T13:59:12.795Z,49.63
2022-09-09T14:01:39.392Z,49.78
2022-09-09T14:04:06.212Z,49.92
2022-09-09T14:06:33.444Z,49.89
2022-09-09T14:09:00.013Z,49.80
2022-09-09T14:11:26.584Z,50.03
2022-09-09T14:13:53.175Z,50.34
2022-09-09T14:16:20.193Z,50.65
2022-09-09T14:18:46.970Z,50.75
2022-09-09T14:21:13.537Z,50.90
2022-09-09T14:23:40.041Z,51.55
2022-09-09T14:26:07.504Z,51.65
2022-09-09T14:31:23.121Z,52.08
2022-09-09T14:33:49.660Z,52.31
2022-09-09T14:36:16.384Z,52.21
2022-09-09T14:38:42.870Z,52.59
2022-09-09T14:41:17.167Z,51.90
2022-09-09T14:43:43.934Z,52.22
2022-09-09T14:46:12.959Z,52.30
2022-09-09T14:48:39.849Z,52.83
2022-09-09T14:51:18.747Z,51.93
2022-09-09T14:53:45.530Z,52.65
2022-09-09T14:56:15.147Z,52.60
2022-09-09T14:58:41.701Z,52.77
2022-09-09T15:01:17.196Z,51.49
2022-09-09T15:03:50.121Z,52.41
2022-09-09T15:06:16.642Z,52.46
2022-09-09T15:08:44.481Z,52.77
2022-09-09T15:11:12.422Z,52.33
2022-09-09T15:13:41.047Z,51.97
2022-09-09T15:16:10.220Z,52.37
2022-09-09T15:18:36.995Z,52.47
2022-09-09T15:21:04.464Z,52.55
2022-09-09T15:23:33.419Z,52.77
2022-09-09T15:26:00.077Z,52.85
2022-09-09T15:28:26.843Z,52.47
2022-09-09T15:30:54.868Z,52.59
2022-09-09T15:33:22.027Z,51.70
2022-09-09T15:35:48.782Z,53.09
2022-09-09T15:38:15.280Z,53.12
2022-09-09T15:40:41.851Z,52.88
2022-09-09T15:43:08.948Z,53.01
2022-09-09T15:45:35.378Z,53.36
2022-09-09T15:48:02.668Z,53.40
2022-09-09T15:50:29.306Z,53.77
2022-09-09T15:52:55.852Z,53.40
2022-09-09T15:55:23.217Z,53.97
2022-09-09T15:57:49.828Z,54.30
2022-09-09T16:00:16.436Z,54.07
2022-09-09T16:02:43.003Z,54.14
2022-09-09T16:05:09.783Z,54.57
2022-09-09T16:07:36.270Z,54.36
2022-09-09T16:10:03.338Z,54.61
2022-09-09T16:12:29.855Z,54.83
2022-09-09T16:14:56.615Z,54.82
2022-09-09T16:17:23.164Z,54.79
2022-09-09T16:19:49.684Z,54.85
2022-09-09T16:22:16.273Z,54.94
2022-09-09T16:24:42.877Z,55.08
2022-09-09T16:27:09.434Z,55.03
2022-09-09T16:29:35.927Z,54.60
2022-09-09T16:32:04.253Z,54.45
2022-09-09T16:34:31.267Z,54.24
2022-09-09T16:36:57.775Z,53.41
2022-09-09T16:39:24.271Z,53.33
2022-09-09T16:41:50.874Z,53.87
2022-09-09T16:44:18.624Z,53.96
2022-09-09T16:46:46.498Z,54.11
2022-09-09T16:49:14.657Z,53.64
2022-09-09T16:51:43.648Z,53.28
2022-09-09T16:54:11.301Z,52.72
2022-09-09T16:56:40.209Z,51.75
2022-09-09T16:59:10.580Z,50.34
2022-09-09T17:01:39.331Z,50.51
2022-09-09T17:04:08.747Z,49.74
2022-09-09T17:06:36.762Z,49.24
2022-09-09T17:09:04.878Z,47.34
2022-09-09T17:11:31.433Z,49.37
2022-09-09T17:13:59.013Z,49.35
2022-09-09T17:16:27.601Z,48.64
2022-09-09T17:18:55.072Z,48.85
2022-09-09T17:21:24.312Z,48.68
2022-09-09T17:23:51.248Z,48.85
2022-09-09T17:26:20.212Z,48.77
2022-09-09T17:28:46.864Z,49.03
2022-09-09T17:31:18.518Z,49.48
2022-09-09T17:33:48.737Z,48.96
2022-09-09T17:36:21.297Z,49.79
2022-09-09T17:38:47.864Z,49.94
2022-09-09T17:41:19.954Z,50.22
2022-09-09T17:43:47.360Z,50.67
2022-09-09T17:46:18.961Z,51.34
2022-09-09T17:48:45.506Z,51.32
2022-09-09T17:51:21.484Z,51.39
2022-09-09T17:53:49.859Z,51.98
2022-09-09T17:56:19.301Z,52.20
2022-09-09T17:58:45.906Z,52.51
2022-09-09T18:01:32.477Z,52.48
2022-09-09T18:04:04.940Z,52.85
2022-09-09T18:06:36.937Z,53.37
2022-09-09T18:09:10.230Z,53.30
2022-09-09T18:11:39.716Z,53.63
2022-09-09T18:14:06.329Z,53.69
2022-09-09T18:16:34.099Z,53.88
2022-09-09T18:19:00.580Z,53.86
2022-09-09T18:21:27.109Z,54.00
2022-09-09T18:23:53.983Z,54.39
2022-09-09T18:26:25.494Z,54.84
2022-09-09T18:28:54.548Z,55.01
2022-09-09T18:31:23.191Z,55.00
2022-09-09T18:33:50.290Z,55.28
2022-09-09T18:36:22.789Z,55.52
2022-09-09T18:38:49.783Z,55.31
2022-09-09T18:41:25.503Z,56.28
2022-09-09T18:43:54.252Z,55.65
2022-09-09T18:46:22.016Z,55.53
2022-09-09T18:48:49.681Z,55.90
2022-09-09T18:51:19.859Z,56.00
2022-09-09T18:53:58.482Z,56.59
2022-09-09T18:56:25.104Z,56.32
2022-09-09T18:58:53.553Z,56.22
2022-09-09T19:01:20.205Z,56.45
2022-09-09T19:03:47.076Z,56.72
2022-09-09T19:06:16.476Z,57.13
2022-09-09T19:08:44.683Z,57.17
2022-09-09T19:11:16.818Z,57.75
2022-09-09T19:13:43.575Z,57.37
2022-09-09T19:16:13.817Z,57.21
2022-09-09T19:18:41.197Z,57.39
2022-09-09T19:21:11.822Z,57.51
2022-09-09T19:23:38.732Z,57.54
2022-09-09T19:26:06.283Z,57.46
2022-09-09T19:28:36.605Z,57.99
2022-09-09T19:31:07.846Z,58.06
2022-09-09T19:33:35.058Z,57.83
2022-09-09T19:36:06.283Z,57.85
2022-09-09T19:38:34.202Z,57.80
2022-09-09T19:41:09.529Z,58.50
2022-09-09T19:43:36.860Z,58.21
2022-09-09T19:46:08.042Z,58.95
2022-09-09T19:48:37.179Z,58.58
2022-09-09T19:51:08.799Z,58.68
2022-09-09T19:53:37.559Z,58.55
2022-09-09T19:56:05.040Z,58.32
2022-09-09T19:58:33.597Z,58.48
2022-09-09T20:01:21.200Z,58.87
2022-09-09T20:03:49.509Z,58.96
2022-09-09T20:06:18.071Z,58.83
2022-09-09T20:08:46.864Z,58.88
2022-09-09T20:11:14.915Z,59.04
2022-09-09T20:13:41.954Z,59.14
2022-09-09T20:16:11.836Z,59.22
2022-09-09T20:18:43.731Z,59.98
2022-09-09T20:21:20.752Z,60.13
2022-09-09T20:23:48.939Z,59.69
2022-09-09T20:26:16.366Z,59.55
2022-09-09T20:28:44.100Z,59.51
2022-09-09T20:31:15.658Z,59.96
2022-09-09T20:33:43.661Z,59.64
2022-09-09T20:36:16.397Z,60.01
2022-09-09T20:38:53.501Z,60.38
2022-09-09T20:41:22.318Z,59.76
2022-09-09T20:43:53.166Z,59.35
2022-09-09T20:46:22.438Z,59.48
2022-09-09T20:48:50.301Z,59.55
2022-09-09T20:51:17.736Z,59.53
2022-09-09T20:53:44.209Z,59.53
2022-09-09T20:56:11.287Z,59.39
2022-09-09T20:58:38.680Z,59.45
2022-09-09T21:01:05.897Z,59.40
2022-09-09T21:03:34.798Z,59.58
2022-09-09T21:06:01.407Z,59.84
2022-09-09T21:08:28.251Z,59.73
2022-09-09T21:10:54.957Z,59.84
2022-09-09T21:13:21.653Z,59.89
2022-09-09T21:15:49.039Z,60.18
2022-09-09T21:18:15.604Z,60.21
2022-09-09T21:20:42.186Z,60.19
2022-09-09T21:23:10.287Z,60.51
2022-09-09T21:25:36.687Z,60.50
2022-09-09T21:28:04.852Z,60.29
2022-09-09T21:30:39.470Z,61.08
2022-09-09T21:33:10.581Z,60.61
2022-09-09T21:35:39.407Z,60.87
2022-09-09T21:38:13.215Z,61.53
2022-09-09T21:40:40.683Z,60.86
2022-09-09T21:43:08.439Z,61.07
2022-09-09T21:45:35.101Z,61.17
2022-09-09T21:48:02.112Z,61.20
2022-09-09T21:50:28.774Z,60.89
2022-09-09T21:52:55.388Z,61.38
2022-09-09T21:55:21.956Z,61.32
2022-09-09T21:57:48.466Z,60.96
2022-09-09T22:00:15.035Z,61.20
2022-09-09T22:02:41.647Z,61.19
2022-09-09T22:05:08.548Z,61.01
2022-09-09T22:07:35.121Z,61.03
2022-09-09T22:10:01.705Z,61.46
2022-09-09T22:12:28.242Z,61.21
2022-09-09T22:14:54.680Z,61.39
2022-09-09T22:17:21.156Z,61.39
2022-09-09T22:19:47.792Z,61.96
2022-09-09T22:22:14.228Z,62.23
2022-09-09T22:24:40.754Z,62.22
2022-09-09T22:27:07.497Z,62.11
2022-09-09T22:29:34.164Z,62.37
2022-09-09T22:32:00.714Z,62.42
2022-09-09T22:34:27.222Z,62.63
2022-09-09T22:36:54.139Z,62.62
2022-09-09T22:39:20.583Z,62.51
2022-09-09T22:41:47.186Z,62.48
2022-09-09T22:44:13.739Z,62.34
2022-09-09T22:46:40.623Z,62.19
2022-09-09T22:49:07.532Z,62.50
2022-09-09T22:51:34.173Z,62.43
2022-09-09T22:54:00.919Z,62.46
2022-09-09T22:56:27.495Z,62.29
2022-09-09T22:58:56.235Z,61.93
2022-09-09T23:01:25.240Z,61.76
2022-09-09T23:03:52.112Z,61.79
2022-09-09T23:06:21.258Z,62.00
2022-09-09T23:08:50.076Z,61.83
2022-09-09T23:11:16.791Z,61.69
2022-09-09T23:13:51.933Z,62.46
2022-09-09T23:16:30.632Z,62.34
2022-09-09T23:18:57.174Z,61.75
2022-09-09T23:21:24.651Z,61.90
2022-09-09T23:23:52.963Z,61.74
2022-09-09T23:26:19.948Z,61.80
2022-09-09T23:28:48.097Z,61.93
2022-09-09T23:31:16.086Z,62.33
2022-09-09T23:33:43.320Z,63.04
2022-09-09T23:36:13.637Z,62.13
2022-09-09T23:38:40.949Z,61.91
2022-09-09T23:41:10.083Z,62.16
2022-09-09T23:43:36.780Z,61.95
2022-09-09T23:46:03.326Z,62.18
2022-09-09T23:48:29.879Z,62.24
2022-09-09T23:50:56.430Z,62.22
2022-09-09T23:53:23.067Z,62.21
2022-09-09T23:55:49.525Z,62.30
2022-09-09T23:58:15.975Z,62.88
